createdAt,value
2023-08-03T00:00:14.730Z,23.03
2023-08-03T00:02:48.244Z,22.94
2023-08-03T00:05:21.446Z,22.99
2023-08-03T00:07:53.933Z,22.97
2023-08-03T00:10:28.794Z,22.86
2023-08-03T00:13:01.267Z,22.93
2023-08-03T00:15:32.832Z,23.03
2023-08-03T00:18:04.509Z,23.15
2023-08-03T00:20:36.192Z,23.29
2023-08-03T00:23:07.973Z,23.34
2023-08-03T00:25:39.652Z,23.36
2023-08-03T00:28:11.226Z,23.34
2023-08-03T00:30:43.488Z,23.29
2023-08-03T00:33:15.236Z,23.14
2023-08-03T00:35:47.757Z,23.18
2023-08-03T00:38:19.507Z,23.21
2023-08-03T00:40:51.341Z,23.18
2023-08-03T00:43:22.888Z,23.17
2023-08-03T00:45:55.522Z,23.08
2023-08-03T00:48:27.126Z,23.05
2023-08-03T00:50:58.987Z,22.97
2023-08-03T00:53:32.234Z,22.83
2023-08-03T00:56:03.806Z,22.79
2023-08-03T00:58:36.987Z,22.90
2023-08-03T01:01:09.841Z,23.04
2023-08-03T01:03:42.164Z,23.11
2023-08-03T01:06:14.848Z,23.05
2023-08-03T01:08:46.363Z,22.88
2023-08-03T01:11:18.122Z,23.00
2023-08-03T01:13:49.835Z,23.03
2023-08-03T01:16:21.665Z,22.99
2023-08-03T01:18:53.977Z,22.93
2023-08-03T01:21:26.940Z,22.81
2023-08-03T01:23:59.360Z,22.98
2023-08-03T01:26:31.368Z,23.07
2023-08-03T01:29:03.021Z,23.14
2023-08-03T01:31:36.308Z,22.98
2023-08-03T01:34:09.894Z,22.85
2023-08-03T01:36:41.630Z,22.88
2023-08-03T01:39:13.942Z,22.90
2023-08-03T01:41:47.787Z,22.99
2023-08-03T01:44:29.214Z,22.75
2023-08-03T01:47:03.225Z,22.65
2023-08-03T01:49:36.226Z,22.50
2023-08-03T01:52:08.224Z,22.47
2023-08-03T01:54:41.346Z,22.45
2023-08-03T01:57:13.507Z,22.55
2023-08-03T01:59:45.293Z,22.50
2023-08-03T02:02:17.898Z,22.36
2023-08-03T02:04:49.500Z,22.35
2023-08-03T02:07:41.987Z,22.42
2023-08-03T02:10:14.488Z,22.32
2023-08-03T02:12:46.201Z,22.30
2023-08-03T02:15:18.107Z,22.25
2023-08-03T02:17:49.740Z,22.21
2023-08-03T02:20:21.638Z,22.11
2023-08-03T02:22:53.458Z,22.03
2023-08-03T02:25:25.481Z,22.07
2023-08-03T02:27:57.791Z,22.17
2023-08-03T02:30:32.352Z,22.28
2023-08-03T02:33:04.083Z,22.35
2023-08-03T02:35:40.601Z,22.34
2023-08-03T02:38:13.249Z,22.43
2023-08-03T02:40:44.786Z,22.32
2023-08-03T02:43:16.459Z,22.18
2023-08-03T02:45:48.069Z,22.22
2023-08-03T02:48:19.678Z,22.28
2023-08-03T02:50:51.157Z,22.28
2023-08-03T02:53:22.873Z,22.23
2023-08-03T02:55:54.786Z,22.16
2023-08-03T02:58:27.488Z,22.13
2023-08-03T03:00:58.984Z,22.17
2023-08-03T03:03:30.776Z,22.16
2023-08-03T03:06:02.840Z,22.05
2023-08-03T03:08:34.492Z,22.05
2023-08-03T03:11:06.092Z,22.02
2023-08-03T03:13:37.845Z,21.99
2023-08-03T03:16:09.662Z,22.06
2023-08-03T03:18:41.241Z,21.99
2023-08-03T03:21:12.835Z,22.06
2023-08-03T03:23:44.758Z,22.03
2023-08-03T03:26:16.531Z,21.90
2023-08-03T03:28:48.098Z,21.90
2023-08-03T03:32:33.448Z,21.95
2023-08-03T03:39:01.464Z,22.42
2023-08-03T03:41:33.430Z,22.31
2023-08-03T03:44:06.126Z,22.19
2023-08-03T03:46:37.849Z,22.19
2023-08-03T03:49:09.279Z,22.28
2023-08-03T03:51:40.966Z,22.38
2023-08-03T03:54:12.841Z,22.34
2023-08-03T03:56:44.482Z,22.28
2023-08-03T03:59:17.181Z,22.18
2023-08-03T04:01:48.868Z,22.22
2023-08-03T04:04:20.621Z,22.24
2023-08-03T04:06:52.239Z,22.26
2023-08-03T04:09:24.344Z,22.15
2023-08-03T04:11:57.926Z,22.23
2023-08-03T04:14:30.970Z,22.36
2023-08-03T04:17:02.525Z,22.27
2023-08-03T04:19:34.928Z,22.25
2023-08-03T04:22:06.482Z,22.38
2023-08-03T04:24:40.221Z,22.42
2023-08-03T04:27:12.181Z,22.59
2023-08-03T04:29:43.973Z,22.53
2023-08-03T04:32:15.849Z,22.56
2023-08-03T04:34:48.001Z,22.36
2023-08-03T04:37:19.522Z,22.33
2023-08-03T04:39:51.655Z,22.41
2023-08-03T04:42:23.312Z,22.43
2023-08-03T04:44:55.424Z,22.39
2023-08-03T04:47:28.268Z,22.42
2023-08-03T04:49:59.773Z,22.28
2023-08-03T04:52:31.495Z,22.42
2023-08-03T04:55:03.654Z,22.58
2023-08-03T04:57:35.307Z,22.74
2023-08-03T05:00:07.990Z,22.83
2023-08-03T05:02:41.071Z,22.82
2023-08-03T05:05:13.416Z,22.79
2023-08-03T05:07:45.594Z,22.73
2023-08-03T05:10:17.307Z,22.64
2023-08-03T05:12:48.902Z,22.53
2023-08-03T05:15:20.870Z,22.56
2023-08-03T05:17:53.479Z,22.55
2023-08-03T05:20:25.185Z,22.59
2023-08-03T05:22:57.024Z,22.61
2023-08-03T05:25:28.695Z,22.59
2023-08-03T05:28:00.614Z,22.69
2023-08-03T05:30:34.760Z,22.63
2023-08-03T05:33:07.068Z,22.64
2023-08-03T05:35:41.103Z,22.71
2023-08-03T05:38:15.058Z,22.80
2023-08-03T05:40:47.025Z,22.83
2023-08-03T05:43:19.667Z,22.99
2023-08-03T05:45:59.974Z,23.22
2023-08-03T05:48:33.068Z,23.40
2023-08-03T05:51:05.322Z,23.58
2023-08-03T05:53:37.284Z,23.63
2023-08-03T05:56:13.631Z,23.67
2023-08-03T05:58:45.263Z,23.93
2023-08-03T06:01:20.567Z,24.01
2023-08-03T06:03:53.893Z,23.96
2023-08-03T06:06:26.591Z,23.87
2023-08-03T06:09:01.632Z,23.87
2023-08-03T06:11:33.684Z,23.78
2023-08-03T06:14:05.953Z,23.84
2023-08-03T06:16:37.873Z,23.84
2023-08-03T06:19:11.953Z,23.83
2023-08-03T06:21:45.496Z,23.90
2023-08-03T06:24:17.820Z,23.94
2023-08-03T06:26:50.885Z,23.90
2023-08-03T06:29:23.502Z,23.90
2023-08-03T06:31:55.858Z,23.73
2023-08-03T06:34:27.558Z,23.61
2023-08-03T06:37:01.682Z,23.73
2023-08-03T06:39:33.569Z,23.86
2023-08-03T06:42:06.041Z,23.85
2023-08-03T06:44:38.033Z,23.93
2023-08-03T06:47:11.027Z,23.85
2023-08-03T06:49:42.924Z,23.78
2023-08-03T06:52:15.200Z,23.76
2023-08-03T06:54:46.852Z,23.90
2023-08-03T06:57:18.392Z,23.98
2023-08-03T06:59:50.733Z,24.03
2023-08-03T07:02:22.485Z,24.24
2023-08-03T07:04:54.386Z,24.16
2023-08-03T07:07:26.186Z,24.16
2023-08-03T07:09:57.905Z,24.16
2023-08-03T07:12:29.834Z,24.17
2023-08-03T07:15:02.027Z,24.32
2023-08-03T07:17:34.164Z,24.48
2023-08-03T07:20:09.397Z,24.43
2023-08-03T07:22:41.291Z,24.29
2023-08-03T07:25:14.332Z,24.19
2023-08-03T07:27:46.086Z,24.21
2023-08-03T07:30:18.874Z,24.22
2023-08-03T07:32:52.930Z,24.24
2023-08-03T07:35:25.504Z,24.22
2023-08-03T07:37:57.402Z,24.13
2023-08-03T07:40:29.041Z,24.06
2023-08-03T07:43:00.605Z,24.10
2023-08-03T07:48:07.489Z,23.86
2023-08-03T07:50:39.457Z,23.82
2023-08-03T07:53:11.422Z,23.84
2023-08-03T07:55:46.060Z,23.96
2023-08-03T07:58:19.104Z,23.89
2023-08-03T08:00:51.865Z,23.84
2023-08-03T08:03:24.171Z,23.76
2023-08-03T08:05:56.105Z,23.62
2023-08-03T08:08:27.998Z,23.46
2023-08-03T08:11:11.895Z,23.41
2023-08-03T08:13:46.497Z,23.37
2023-08-03T08:16:20.092Z,23.35
2023-08-03T08:18:51.923Z,23.24
2023-08-03T08:21:23.893Z,23.11
2023-08-03T08:23:55.585Z,23.16
2023-08-03T08:26:27.698Z,23.08
2023-08-03T08:29:04.385Z,22.92
2023-08-03T08:31:53.989Z,22.89
2023-08-03T08:34:28.299Z,22.94
2023-08-03T08:37:01.407Z,23.02
2023-08-03T08:39:33.176Z,22.87
2023-08-03T08:42:14.735Z,22.95
2023-08-03T08:44:46.756Z,23.13
2023-08-03T08:47:18.915Z,23.20
2023-08-03T08:50:21.979Z,23.16
2023-08-03T08:56:05.403Z,23.26
2023-08-03T09:00:50.293Z,23.22
2023-08-03T09:03:22.301Z,23.21
2023-08-03T09:08:52.523Z,23.25
2023-08-03T09:11:50.342Z,23.37
2023-08-03T09:14:24.191Z,23.35
2023-08-03T09:16:56.076Z,23.27
2023-08-03T09:20:44.142Z,23.22
2023-08-03T09:25:39.124Z,23.21
2023-08-03T09:38:50.470Z,23.21
2023-08-03T09:44:16.197Z,23.08
2023-08-03T09:46:51.682Z,23.07
2023-08-03T09:49:23.469Z,22.98
2023-08-03T09:59:59.765Z,22.76
2023-08-03T10:02:37.527Z,22.81
2023-08-03T10:05:12.646Z,23.00
2023-08-03T10:07:52.608Z,23.02
2023-08-03T10:10:26.978Z,23.03
2023-08-03T10:12:59.100Z,22.99
2023-08-03T10:15:31.228Z,23.04
2023-08-03T10:18:03.965Z,22.94
2023-08-03T10:20:38.389Z,22.89
2023-08-03T10:23:12.765Z,22.93
2023-08-03T10:25:58.376Z,23.00
2023-08-03T10:28:46.262Z,22.97
2023-08-03T10:31:22.664Z,23.03
2023-08-03T10:34:11.078Z,22.94
2023-08-03T10:36:49.164Z,22.87
2023-08-03T10:39:51.322Z,22.79
2023-08-03T10:42:25.965Z,22.78
2023-08-03T10:45:17.541Z,22.72
2023-08-03T10:47:49.874Z,22.80
2023-08-03T10:50:22.017Z,22.68
2023-08-03T10:52:54.983Z,22.66
2023-08-03T10:55:28.450Z,22.66
2023-08-03T10:58:00.434Z,22.71
2023-08-03T11:00:34.323Z,22.67
2023-08-03T11:03:06.353Z,22.48
2023-08-03T11:05:39.129Z,22.42
2023-08-03T11:08:11.897Z,22.34
2023-08-03T11:10:44.025Z,22.35
2023-08-03T11:13:17.593Z,22.31
2023-08-03T11:15:50.233Z,22.20
2023-08-03T11:18:22.298Z,22.21
2023-08-03T11:20:55.124Z,22.17
2023-08-03T11:23:27.067Z,22.18
2023-08-03T11:25:59.887Z,22.24
2023-08-03T11:28:31.856Z,22.20
2023-08-03T11:31:04.009Z,22.07
2023-08-03T11:33:37.824Z,22.02
2023-08-03T11:36:11.498Z,22.16
2023-08-03T11:38:43.334Z,22.25
2023-08-03T11:41:17.561Z,22.39
2023-08-03T11:43:48.616Z,22.53
2023-08-03T11:46:23.613Z,22.54
2023-08-03T11:48:58.375Z,22.55
2023-08-03T11:51:37.807Z,22.66
2023-08-03T11:54:12.581Z,22.82
2023-08-03T11:56:48.649Z,22.88
2023-08-03T11:59:27.274Z,22.84
2023-08-03T12:01:59.752Z,22.78
2023-08-03T12:04:33.077Z,22.82
2023-08-03T12:09:45.583Z,22.83
2023-08-03T12:12:21.544Z,22.91
2023-08-03T12:14:54.131Z,22.88
2023-08-03T12:17:29.148Z,22.75
2023-08-03T12:20:04.356Z,22.69
2023-08-03T12:22:37.448Z,22.77
2023-08-03T12:25:10.716Z,22.73
2023-08-03T12:27:43.120Z,22.72
2023-08-03T12:30:18.935Z,22.72
2023-08-03T12:32:51.204Z,22.91
2023-08-03T12:35:23.504Z,23.03
2023-08-03T12:37:58.432Z,23.29
2023-08-03T12:40:32.824Z,23.49
2023-08-03T12:43:04.850Z,23.60
2023-08-03T12:45:36.963Z,23.81
2023-08-03T12:50:46.693Z,24.30
2023-08-03T12:53:20.424Z,24.47
2023-08-03T12:55:54.248Z,24.64
2023-08-03T12:58:27.883Z,24.66
2023-08-03T13:01:01.638Z,24.70
2023-08-03T13:03:33.577Z,24.70
2023-08-03T13:06:05.451Z,24.82
2023-08-03T13:08:37.425Z,24.80
2023-08-03T13:11:09.296Z,24.78
2023-08-03T13:13:41.021Z,24.89
2023-08-03T13:16:12.826Z,24.99
2023-08-03T13:18:47.191Z,25.00
2023-08-03T13:21:20.746Z,25.05
2023-08-03T13:23:54.523Z,24.99
2023-08-03T13:26:29.487Z,24.91
2023-08-03T13:29:02.032Z,25.05
2023-08-03T13:31:33.948Z,25.10
2023-08-03T13:34:06.042Z,25.08
2023-08-03T13:36:38.222Z,24.91
2023-08-03T13:39:11.901Z,24.88
2023-08-03T13:41:43.767Z,24.90
2023-08-03T13:44:16.329Z,24.81
2023-08-03T13:46:48.333Z,24.83
2023-08-03T13:49:20.945Z,24.89
2023-08-03T13:51:52.681Z,25.02
2023-08-03T13:54:24.393Z,25.15
2023-08-03T13:59:32.745Z,25.06
2023-08-03T14:02:05.929Z,25.18
2023-08-03T14:04:38.502Z,25.22
2023-08-03T14:07:11.570Z,25.45
2023-08-03T14:09:44.773Z,25.61
2023-08-03T14:12:19.165Z,25.69
2023-08-03T14:14:51.170Z,25.63
2023-08-03T14:22:40.315Z,25.95
2023-08-03T14:27:53.750Z,25.95
2023-08-03T14:30:25.605Z,25.98
2023-08-03T14:32:57.772Z,26.00
2023-08-03T14:38:04.499Z,26.13
2023-08-03T14:40:41.118Z,26.16
2023-08-03T14:43:15.785Z,26.10
2023-08-03T14:46:19.921Z,25.98
2023-08-03T14:49:00.398Z,26.06
2023-08-03T14:54:25.091Z,26.10
2023-08-03T14:57:06.527Z,25.98
2023-08-03T14:59:40.260Z,25.74
2023-08-03T15:02:12.568Z,25.68
2023-08-03T15:04:49.114Z,25.62
2023-08-03T15:07:30.913Z,25.71
2023-08-03T15:10:04.889Z,25.81
2023-08-03T15:12:40.048Z,25.81
2023-08-03T15:15:14.304Z,25.99
2023-08-03T15:17:44.942Z,25.93
2023-08-03T15:20:17.455Z,25.85
2023-08-03T15:23:04.329Z,25.68
2023-08-03T15:25:38.293Z,25.67
2023-08-03T15:28:11.773Z,25.64
2023-08-03T15:33:28.696Z,25.55
2023-08-03T15:36:07.310Z,25.56
2023-08-03T15:38:42.453Z,25.51
2023-08-03T15:41:16.756Z,25.61
2023-08-03T15:43:51.853Z,25.66
2023-08-03T15:46:25.071Z,25.61
2023-08-03T15:49:03.977Z,25.46
2023-08-03T15:51:46.058Z,25.38
2023-08-03T15:54:25.454Z,25.33
2023-08-03T15:56:59.565Z,25.41
2023-08-03T15:59:33.438Z,25.68
2023-08-03T16:02:06.154Z,25.84
2023-08-03T16:04:38.258Z,25.75
2023-08-03T16:07:10.848Z,25.58
2023-08-03T16:09:42.984Z,25.49
2023-08-03T16:12:15.181Z,25.51
2023-08-03T16:14:48.307Z,25.58
2023-08-03T16:17:22.374Z,25.79
2023-08-03T16:19:55.152Z,25.90
2023-08-03T16:22:30.494Z,25.82
2023-08-03T16:25:03.624Z,25.72
2023-08-03T16:27:38.411Z,25.70
2023-08-03T16:30:12.927Z,25.71
2023-08-03T16:35:21.745Z,25.70
2023-08-03T16:37:54.280Z,25.65
2023-08-03T16:40:27.597Z,25.64
2023-08-03T16:43:00.096Z,25.60
2023-08-03T16:45:40.236Z,25.47
2023-08-03T16:48:19.920Z,25.50
2023-08-03T16:50:55.806Z,25.38
2023-08-03T16:53:29.398Z,25.48
2023-08-03T16:56:01.727Z,25.49
2023-08-03T16:58:35.058Z,25.51
2023-08-03T17:01:08.961Z,25.47
2023-08-03T17:03:41.505Z,25.35
2023-08-03T17:06:14.423Z,25.25
2023-08-03T17:08:46.773Z,25.25
2023-08-03T17:11:20.035Z,25.21
2023-08-03T17:13:52.809Z,25.22
2023-08-03T17:16:26.210Z,25.23
2023-08-03T17:19:00.144Z,25.16
2023-08-03T17:21:32.692Z,25.19
2023-08-03T17:24:05.278Z,25.17
2023-08-03T17:26:38.400Z,25.10
2023-08-03T17:29:12.539Z,25.04
2023-08-03T17:31:46.272Z,24.86
2023-08-03T17:34:20.238Z,24.78
2023-08-03T17:36:54.907Z,24.77
2023-08-03T17:39:28.770Z,24.69
2023-08-03T17:42:04.122Z,24.65
2023-08-03T17:44:36.900Z,24.63
2023-08-03T17:47:08.816Z,24.71
2023-08-03T17:49:41.946Z,24.62
2023-08-03T17:52:15.675Z,24.49
2023-08-03T17:54:49.531Z,24.51
2023-08-03T17:57:23.464Z,24.54
2023-08-03T17:59:58.354Z,24.53
2023-08-03T18:02:31.911Z,24.43
2023-08-03T18:05:06.413Z,24.43
2023-08-03T18:07:40.725Z,24.37
2023-08-03T18:10:13.120Z,24.30
2023-08-03T18:12:49.135Z,24.38
2023-08-03T18:15:25.914Z,24.32
2023-08-03T18:17:59.654Z,24.24
2023-08-03T18:20:33.705Z,24.28
2023-08-03T18:23:07.804Z,24.27
2023-08-03T18:25:40.468Z,24.30
2023-08-03T18:28:16.733Z,24.16
2023-08-03T18:30:50.090Z,24.15
2023-08-03T18:33:28.125Z,24.02
2023-08-03T18:36:10.509Z,23.94
2023-08-03T18:38:44.788Z,23.87
2023-08-03T18:41:17.729Z,23.88
2023-08-03T18:43:53.547Z,23.93
2023-08-03T18:46:27.692Z,23.81
2023-08-03T18:49:00.754Z,23.70
2023-08-03T18:51:34.011Z,23.60
2023-08-03T18:54:08.513Z,23.55
2023-08-03T18:56:45.902Z,23.58
2023-08-03T18:59:26.378Z,23.54
2023-08-03T19:02:00.792Z,23.43
2023-08-03T19:04:35.503Z,23.33
2023-08-03T19:07:18.647Z,23.36
2023-08-03T19:09:56.430Z,23.43
2023-08-03T19:12:32.385Z,23.38
2023-08-03T19:15:09.392Z,23.37
2023-08-03T19:18:02.483Z,23.48
2023-08-03T19:20:39.165Z,23.51
2023-08-03T19:23:14.020Z,23.40
2023-08-03T19:25:50.509Z,23.30
2023-08-03T19:28:24.700Z,23.34
2023-08-03T19:31:00.429Z,23.28
2023-08-03T19:33:36.581Z,23.18
2023-08-03T19:36:15.467Z,23.09
2023-08-03T19:38:49.773Z,23.01
2023-08-03T19:41:26.165Z,23.08
2023-08-03T19:43:59.536Z,23.17
2023-08-03T19:46:33.762Z,23.13
2023-08-03T19:50:26.906Z,23.04
2023-08-03T19:51:57.959Z,22.91
2023-08-03T19:57:10.617Z,22.63
2023-08-03T20:00:50.554Z,22.66
2023-08-03T20:08:16.074Z,22.83
2023-08-03T20:10:52.194Z,22.85
2023-08-03T20:13:25.505Z,22.77
2023-08-03T20:16:02.531Z,22.83
2023-08-03T20:18:35.336Z,22.76
2023-08-03T20:21:07.398Z,22.63
2023-08-03T20:23:45.052Z,22.45
2023-08-03T20:29:04.033Z,22.25
2023-08-03T20:31:39.051Z,22.11
2023-08-03T20:34:13.631Z,22.19
2023-08-03T20:36:45.867Z,22.10
2023-08-03T20:39:35.315Z,22.10
2023-08-03T20:49:56.048Z,22.09
2023-08-03T20:52:28.205Z,21.95
2023-08-03T20:55:00.048Z,21.94
2023-08-03T20:57:32.210Z,21.96
2023-08-03T21:00:04.327Z,21.97
2023-08-03T21:02:36.138Z,21.95
2023-08-03T21:05:09.032Z,21.91
2023-08-03T21:07:40.997Z,21.81
2023-08-03T21:12:50.262Z,21.79
2023-08-03T21:15:22.487Z,21.77
2023-08-03T21:17:55.707Z,21.63
2023-08-03T21:20:27.605Z,21.45
2023-08-03T21:22:59.474Z,21.35
2023-08-03T21:25:31.116Z,21.38
2023-08-03T21:28:04.162Z,21.45
2023-08-03T21:30:35.807Z,21.47
2023-08-03T21:33:07.509Z,21.43
2023-08-03T21:35:40.369Z,21.32
2023-08-03T21:38:11.940Z,21.37
2023-08-03T21:40:44.405Z,21.40
2023-08-03T21:43:16.077Z,21.39
2023-08-03T21:45:51.261Z,21.21
2023-08-03T21:48:23.903Z,21.17
2023-08-03T21:50:56.485Z,21.15
2023-08-03T21:53:29.794Z,21.19
2023-08-03T21:56:01.691Z,21.03
2023-08-03T21:58:34.210Z,21.02
2023-08-03T22:01:11.765Z,21.03
2023-08-03T22:03:43.510Z,20.93
2023-08-03T22:06:15.237Z,20.84
2023-08-03T22:08:46.928Z,20.81
2023-08-03T22:11:22.457Z,20.75
2023-08-03T22:13:54.497Z,20.84
2023-08-03T22:16:27.674Z,20.81
2023-08-03T22:19:12.900Z,20.85
2023-08-03T22:21:51.033Z,20.88
2023-08-03T22:24:23.107Z,20.80
2023-08-03T22:26:56.141Z,20.67
2023-08-03T22:29:28.624Z,20.64
2023-08-03T22:32:00.912Z,20.60
2023-08-03T22:34:32.965Z,20.57
2023-08-03T22:37:06.023Z,20.51
2023-08-03T22:39:38.145Z,20.42
2023-08-03T22:42:11.196Z,20.38
2023-08-03T22:44:42.859Z,20.31
2023-08-03T22:47:14.640Z,20.29
2023-08-03T22:49:46.401Z,20.25
2023-08-03T22:52:18.462Z,20.38
2023-08-03T22:54:50.245Z,20.24
2023-08-03T22:57:21.849Z,20.17
2023-08-03T22:59:55.694Z,20.10
2023-08-03T23:02:27.941Z,20.11
2023-08-03T23:04:59.736Z,20.09
2023-08-03T23:07:31.571Z,20.16
2023-08-03T23:10:03.775Z,20.26
2023-08-03T23:12:38.187Z,20.27
2023-08-03T23:15:09.617Z,20.17
2023-08-03T23:17:41.206Z,20.24
2023-08-03T23:20:13.848Z,20.01
2023-08-03T23:22:45.647Z,19.84
2023-08-03T23:25:17.695Z,19.85
2023-08-03T23:27:51.639Z,19.91
2023-08-03T23:30:24.309Z,19.87
2023-08-03T23:32:55.966Z,19.98
2023-08-03T23:35:28.246Z,19.97
2023-08-03T23:37:59.787Z,19.82
2023-08-03T23:40:31.577Z,19.83
2023-08-03T23:43:03.309Z,19.87
2023-08-03T23:45:34.964Z,19.76
2023-08-03T23:48:08.442Z,19.68
2023-08-03T23:50:40.256Z,19.64
2023-08-03T23:53:12.428Z,19.57
2023-08-03T23:55:44.005Z,19.58
2023-08-03T23:58:15.823Z,19.57
